createdAt,value
2019-01-27T00:01:57.049Z,16.07
2019-01-27T00:04:27.985Z,17.60
2019-01-27T00:06:58.284Z,18.00
2019-01-27T00:09:29.303Z,15.67
2019-01-27T00:11:59.993Z,15.40
2019-01-27T00:14:30.469Z,15.20
2019-01-27T00:17:01.005Z,14.27
2019-01-27T00:19:31.636Z,13.93
2019-01-27T00:22:01.928Z,13.57
2019-01-27T00:24:32.414Z,13.33
2019-01-27T00:27:03.321Z,12.23
2019-01-27T00:29:33.618Z,13.30
2019-01-27T00:32:04.276Z,12.77
2019-01-27T00:34:35.012Z,11.73
2019-01-27T00:37:05.541Z,10.63
2019-01-27T00:39:36.273Z,13.97
2019-01-27T00:42:06.868Z,11.20
2019-01-27T00:44:37.515Z,10.73
2019-01-27T00:47:08.377Z,12.10
2019-01-27T00:49:38.783Z,11.90
2019-01-27T00:52:09.220Z,10.83
2019-01-27T00:54:39.904Z,11.90
2019-01-27T00:57:10.187Z,12.07
2019-01-27T00:59:40.464Z,11.47
2019-01-27T01:02:11.368Z,10.97
2019-01-27T01:04:41.844Z,10.57
2019-01-27T01:07:12.410Z,10.27
2019-01-27T01:09:43.143Z,9.57
2019-01-27T01:12:13.967Z,9.87
2019-01-27T01:14:44.262Z,9.93
2019-01-27T01:17:15.097Z,10.97
2019-01-27T01:19:45.910Z,10.77
2019-01-27T01:22:16.582Z,11.47
2019-01-27T01:24:47.318Z,11.77
2019-01-27T01:27:18.475Z,10.27
2019-01-27T01:29:48.811Z,11.90
2019-01-27T01:32:19.466Z,11.20
2019-01-27T01:34:50.090Z,10.80
2019-01-27T01:37:20.778Z,12.53
2019-01-27T01:39:51.156Z,12.20
2019-01-27T01:42:21.770Z,10.50
2019-01-27T01:44:52.549Z,12.07
2019-01-27T01:47:23.240Z,9.80
2019-01-27T01:49:53.757Z,9.60
2019-01-27T01:52:24.045Z,7.93
2019-01-27T01:54:54.844Z,12.87
2019-01-27T01:57:25.123Z,11.40
2019-01-27T01:59:55.605Z,13.43
2019-01-27T02:02:26.113Z,13.57
2019-01-27T02:04:56.915Z,13.67
2019-01-27T02:07:27.222Z,11.50
2019-01-27T02:09:58.109Z,12.13
2019-01-27T02:12:28.625Z,11.40
2019-01-27T02:15:00.242Z,11.33
2019-01-27T02:17:30.490Z,9.93
2019-01-27T02:20:00.862Z,11.80
2019-01-27T02:22:31.330Z,12.67
2019-01-27T02:25:01.704Z,12.87
2019-01-27T02:27:31.976Z,10.63
2019-01-27T02:30:02.969Z,12.20
2019-01-27T02:32:33.702Z,12.70
2019-01-27T02:35:04.241Z,13.43
2019-01-27T02:37:34.663Z,12.70
2019-01-27T02:40:06.410Z,11.13
2019-01-27T02:42:36.719Z,13.10
2019-01-27T02:45:07.737Z,11.70
2019-01-27T02:47:38.135Z,12.53
2019-01-27T02:50:08.996Z,12.03
2019-01-27T02:52:39.387Z,13.17
2019-01-27T02:55:09.798Z,11.53
2019-01-27T02:57:40.280Z,13.77
2019-01-27T03:00:12.038Z,13.43
2019-01-27T03:02:43.500Z,14.23
2019-01-27T03:05:33.486Z,14.80
2019-01-27T03:08:04.577Z,12.53
2019-01-27T03:10:35.131Z,13.80
2019-01-27T03:13:05.718Z,12.93
2019-01-27T03:15:36.955Z,13.70
2019-01-27T03:18:07.356Z,15.87
2019-01-27T03:20:38.174Z,15.33
2019-01-27T03:23:08.449Z,15.47
2019-01-27T03:25:38.992Z,14.47
2019-01-27T03:28:09.370Z,16.17
2019-01-27T03:30:39.936Z,13.80
2019-01-27T03:33:10.265Z,16.83
2019-01-27T03:35:41.099Z,15.73
2019-01-27T03:38:11.403Z,13.87
2019-01-27T03:40:41.781Z,16.30
2019-01-27T03:43:12.410Z,20.43
2019-01-27T03:45:42.927Z,15.97
2019-01-27T03:48:13.429Z,15.53
2019-01-27T03:50:44.392Z,16.17
2019-01-27T03:53:14.683Z,15.73
2019-01-27T03:55:45.214Z,15.17
2019-01-27T03:58:15.544Z,14.10
2019-01-27T04:00:47.029Z,14.83
2019-01-27T04:03:17.667Z,14.33
2019-01-27T04:05:48.324Z,14.20
2019-01-27T04:08:18.626Z,14.10
2019-01-27T04:10:49.185Z,17.83
2019-01-27T04:13:20.997Z,15.83
2019-01-27T04:15:51.489Z,15.47
2019-01-27T04:18:22.180Z,16.30
2019-01-27T04:20:52.947Z,14.07
2019-01-27T04:23:23.260Z,15.83
2019-01-27T04:25:53.672Z,14.60
2019-01-27T04:28:24.054Z,14.90
2019-01-27T04:30:54.665Z,16.60
2019-01-27T04:33:25.332Z,15.20
2019-01-27T04:35:56.048Z,14.67
2019-01-27T04:38:26.727Z,12.23
2019-01-27T04:40:57.643Z,14.50
2019-01-27T04:43:27.924Z,17.27
2019-01-27T04:45:58.546Z,15.67
2019-01-27T04:48:29.454Z,14.13
2019-01-27T04:51:00.047Z,14.27
2019-01-27T04:53:30.395Z,14.70
2019-01-27T04:56:00.957Z,16.07
2019-01-27T04:58:31.398Z,14.87
2019-01-27T05:01:02.207Z,16.87
2019-01-27T05:03:57.494Z,16.03
2019-01-27T05:06:27.974Z,14.43
2019-01-27T05:08:58.378Z,13.37
2019-01-27T05:11:28.723Z,13.57
2019-01-27T05:13:59.058Z,13.17
2019-01-27T05:16:29.708Z,16.80
2019-01-27T05:18:59.996Z,14.00
2019-01-27T05:21:30.574Z,17.00
2019-01-27T05:24:01.256Z,17.27
2019-01-27T05:26:31.615Z,16.63
2019-01-27T05:29:01.969Z,18.47
2019-01-27T05:31:32.640Z,15.20
2019-01-27T05:34:03.535Z,16.33
2019-01-27T05:36:33.850Z,17.53
2019-01-27T05:39:06.994Z,17.13
2019-01-27T05:41:37.892Z,16.00
2019-01-27T05:44:08.200Z,15.37
2019-01-27T05:46:39.071Z,17.07
2019-01-27T05:49:09.732Z,14.30
2019-01-27T05:51:40.004Z,15.40
2019-01-27T05:54:10.372Z,15.43
2019-01-27T05:56:40.761Z,16.10
2019-01-27T05:59:11.124Z,17.00
2019-01-27T06:01:42.392Z,17.20
2019-01-27T06:04:12.731Z,16.57
2019-01-27T06:06:43.255Z,22.43
2019-01-27T06:09:13.908Z,20.47
2019-01-27T06:11:44.228Z,19.27
2019-01-27T06:14:14.560Z,19.70
2019-01-27T06:16:45.504Z,20.20
2019-01-27T06:19:15.816Z,20.53
2019-01-27T06:21:46.122Z,21.77
2019-01-27T06:24:16.793Z,21.63
2019-01-27T06:26:47.335Z,21.90
2019-01-27T06:29:17.662Z,22.30
2019-01-27T06:31:48.508Z,24.17
2019-01-27T06:34:20.438Z,24.77
2019-01-27T06:36:51.232Z,24.03
2019-01-27T06:39:21.761Z,22.47
2019-01-27T06:41:52.992Z,25.00
2019-01-27T06:44:23.739Z,29.30
2019-01-27T06:46:54.309Z,27.13
2019-01-27T06:49:24.719Z,27.60
2019-01-27T06:51:55.116Z,26.80
2019-01-27T06:54:25.434Z,23.53
2019-01-27T06:56:55.863Z,24.90
2019-01-27T06:59:30.907Z,22.53
2019-01-27T07:02:09.614Z,22.93
2019-01-27T07:05:02.301Z,27.20
2019-01-27T07:07:54.570Z,26.57
2019-01-27T07:10:49.767Z,26.23
2019-01-27T07:13:38.536Z,24.57
2019-01-27T07:16:43.203Z,24.03
2019-01-27T07:19:44.739Z,23.83
2019-01-27T07:22:37.367Z,22.87
2019-01-27T07:25:42.757Z,26.87
2019-01-27T07:28:35.041Z,29.27
2019-01-27T07:31:29.335Z,28.60
2019-01-27T07:34:19.016Z,29.07
2019-01-27T07:37:11.090Z,29.60
2019-01-27T07:39:58.185Z,36.27
2019-01-27T07:42:45.322Z,41.30
2019-01-27T07:45:35.108Z,43.70
2019-01-27T07:48:24.111Z,42.47
2019-01-27T07:51:25.608Z,35.03
2019-01-27T07:54:19.316Z,30.20
2019-01-27T07:57:07.640Z,31.27
2019-01-27T07:59:56.895Z,31.63
2019-01-27T08:02:38.423Z,27.80
2019-01-27T08:05:34.826Z,26.63
2019-01-27T08:08:24.158Z,28.50
2019-01-27T08:11:13.478Z,23.40
2019-01-27T08:13:49.525Z,23.30
2019-01-27T08:16:44.793Z,23.37
2019-01-27T08:19:40.859Z,23.97
2019-01-27T08:22:28.801Z,23.13
2019-01-27T08:25:33.436Z,22.10
2019-01-27T08:28:21.740Z,26.57
2019-01-27T08:31:01.326Z,22.27
2019-01-27T08:33:56.598Z,25.93
2019-01-27T08:36:36.437Z,21.27
2019-01-27T08:39:43.458Z,20.97
2019-01-27T08:42:31.402Z,23.03
2019-01-27T08:45:33.334Z,22.27
2019-01-27T08:48:03.693Z,20.37
2019-01-27T08:50:34.248Z,23.90
2019-01-27T08:53:05.206Z,21.87
2019-01-27T08:55:35.521Z,23.10
2019-01-27T08:58:06.449Z,21.33
2019-01-27T09:00:38.382Z,24.60
2019-01-27T09:03:36.800Z,24.03
2019-01-27T09:06:32.670Z,21.90
2019-01-27T09:09:25.108Z,22.27
2019-01-27T09:12:20.402Z,21.43
2019-01-27T09:15:21.981Z,22.13
2019-01-27T09:18:26.980Z,22.77
2019-01-27T09:21:13.118Z,22.83
2019-01-27T09:23:59.638Z,23.20
2019-01-27T09:26:42.183Z,23.63
2019-01-27T09:29:31.408Z,23.27
2019-01-27T09:32:19.846Z,23.73
2019-01-27T09:35:15.107Z,23.00
2019-01-27T09:38:16.853Z,23.70
2019-01-27T09:41:08.992Z,28.33
2019-01-27T09:44:01.172Z,27.27
2019-01-27T09:46:53.732Z,28.77
2019-01-27T09:49:40.724Z,37.60
2019-01-27T09:52:19.322Z,34.17
2019-01-27T09:55:23.705Z,33.23
2019-01-27T09:58:12.193Z,41.77
2019-01-27T10:00:46.780Z,47.47
2019-01-27T10:03:40.337Z,44.83
2019-01-27T10:06:44.986Z,44.47
2019-01-27T10:09:32.845Z,43.80
2019-01-27T10:12:09.046Z,44.27
2019-01-27T10:14:53.503Z,41.17
2019-01-27T10:17:57.984Z,45.80
2019-01-27T10:20:50.050Z,49.03
2019-01-27T10:23:36.413Z,50.67
2019-01-27T10:26:17.057Z,41.03
2019-01-27T10:29:04.863Z,43.43
2019-01-27T10:31:53.114Z,40.63
2019-01-27T10:34:45.616Z,41.47
2019-01-27T10:37:33.490Z,40.50
2019-01-27T10:40:26.722Z,42.70
2019-01-27T10:43:11.525Z,42.87
2019-01-27T10:46:10.467Z,40.17
2019-01-27T10:48:59.772Z,43.47
2019-01-27T10:51:42.464Z,43.50
2019-01-27T10:54:32.132Z,42.17
2019-01-27T10:57:07.882Z,43.27
2019-01-27T11:00:06.251Z,46.90
2019-01-27T11:02:55.898Z,41.67
2019-01-27T11:05:54.406Z,45.03
2019-01-27T11:08:33.336Z,42.23
2019-01-27T11:11:22.883Z,41.60
2019-01-27T11:14:15.442Z,40.27
2019-01-27T11:17:02.374Z,41.97
2019-01-27T11:19:50.510Z,39.73
2019-01-27T11:22:45.776Z,39.53
2019-01-27T11:25:27.789Z,40.57
2019-01-27T11:28:14.765Z,34.17
2019-01-27T11:31:10.074Z,37.43
2019-01-27T11:34:00.380Z,34.37
2019-01-27T11:36:53.104Z,32.43
2019-01-27T11:39:42.335Z,35.60
2019-01-27T11:42:23.849Z,33.40
2019-01-27T11:45:11.506Z,35.80
2019-01-27T11:47:47.828Z,35.37
2019-01-27T11:50:21.416Z,35.43
2019-01-27T11:52:55.253Z,39.77
2019-01-27T11:55:25.550Z,39.47
2019-01-27T11:57:56.143Z,34.53
2019-01-27T12:00:33.574Z,34.97
2019-01-27T12:03:04.087Z,37.20
2019-01-27T12:05:34.855Z,35.67
2019-01-27T12:08:05.658Z,34.83
2019-01-27T12:10:35.947Z,33.53
2019-01-27T12:13:06.788Z,34.40
2019-01-27T12:15:37.155Z,35.10
2019-01-27T12:18:07.544Z,35.53
2019-01-27T12:20:38.503Z,33.73
2019-01-27T12:23:09.147Z,33.00
2019-01-27T12:25:39.457Z,32.37
2019-01-27T12:28:09.962Z,32.60
2019-01-27T12:30:40.444Z,31.37
2019-01-27T12:33:11.137Z,30.13
2019-01-27T12:35:41.912Z,30.03
2019-01-27T12:38:12.244Z,30.87
2019-01-27T12:40:42.784Z,35.73
2019-01-27T12:43:13.672Z,29.20
2019-01-27T12:45:43.976Z,31.13
2019-01-27T12:48:14.779Z,31.00
2019-01-27T12:50:45.148Z,33.70
2019-01-27T12:53:15.624Z,37.40
2019-01-27T12:55:47.039Z,35.67
2019-01-27T12:58:17.516Z,32.93
2019-01-27T13:00:54.707Z,35.83
2019-01-27T13:03:25.360Z,35.70
2019-01-27T13:05:55.655Z,32.50
2019-01-27T13:08:26.265Z,34.30
2019-01-27T13:10:57.039Z,34.40
2019-01-27T13:13:27.398Z,35.13
2019-01-27T13:15:57.852Z,34.07
2019-01-27T13:18:28.627Z,33.93
2019-01-27T13:21:00.019Z,33.50
2019-01-27T13:23:30.674Z,32.37
2019-01-27T13:26:01.429Z,33.87
2019-01-27T13:28:31.927Z,31.97
2019-01-27T13:31:02.959Z,33.30
2019-01-27T13:33:33.257Z,32.27
2019-01-27T13:36:05.066Z,33.70
2019-01-27T13:38:35.724Z,32.57
2019-01-27T13:41:06.175Z,34.17
2019-01-27T13:43:36.488Z,32.47
2019-01-27T13:46:07.332Z,34.73
2019-01-27T13:48:37.702Z,35.50
2019-01-27T13:51:07.986Z,33.13
2019-01-27T13:53:38.979Z,33.37
2019-01-27T13:56:09.834Z,35.00
2019-01-27T13:58:40.338Z,36.10
2019-01-27T14:01:11.016Z,36.73
2019-01-27T14:03:41.726Z,38.87
2019-01-27T14:06:12.547Z,36.93
2019-01-27T14:08:43.103Z,32.03
2019-01-27T14:11:13.509Z,33.27
2019-01-27T14:13:44.255Z,31.10
2019-01-27T14:16:14.897Z,31.20
2019-01-27T14:18:45.350Z,34.13
2019-01-27T14:21:16.795Z,33.03
2019-01-27T14:23:47.558Z,31.67
2019-01-27T14:26:18.132Z,34.33
2019-01-27T14:28:48.598Z,34.33
2019-01-27T14:31:19.688Z,33.40
2019-01-27T14:33:49.997Z,35.87
2019-01-27T14:36:20.540Z,36.90
2019-01-27T14:38:51.213Z,41.10
2019-01-27T14:41:21.512Z,39.80
2019-01-27T14:43:51.814Z,42.80
2019-01-27T14:46:22.540Z,46.87
2019-01-27T14:48:53.070Z,48.33
2019-01-27T14:51:23.334Z,49.63
2019-01-27T14:53:53.705Z,48.13
2019-01-27T14:56:24.571Z,50.40
2019-01-27T14:58:54.848Z,51.63
2019-01-27T15:01:25.424Z,51.40
2019-01-27T15:03:55.981Z,53.03
2019-01-27T15:06:26.500Z,50.07
2019-01-27T15:08:57.017Z,49.90
2019-01-27T15:11:27.325Z,48.33
2019-01-27T15:13:58.196Z,49.40
2019-01-27T15:16:28.634Z,53.90
2019-01-27T15:18:58.917Z,51.77
2019-01-27T15:21:29.671Z,53.20
2019-01-27T15:24:00.087Z,55.67
2019-01-27T15:26:30.441Z,61.13
2019-01-27T15:29:00.862Z,61.20
2019-01-27T15:31:31.564Z,58.10
2019-01-27T15:34:01.847Z,60.73
2019-01-27T15:36:32.383Z,56.83
2019-01-27T15:39:04.743Z,53.93
2019-01-27T15:41:36.409Z,58.37
2019-01-27T15:44:06.979Z,61.63
2019-01-27T15:46:37.266Z,60.47
2019-01-27T15:49:08.009Z,65.13
2019-01-27T15:51:38.732Z,65.43
2019-01-27T15:54:09.264Z,70.77
2019-01-27T15:56:39.579Z,71.60
2019-01-27T15:59:10.264Z,70.33
2019-01-27T16:01:40.621Z,77.13
2019-01-27T16:04:10.945Z,77.07
2019-01-27T16:06:41.629Z,88.80
2019-01-27T16:09:12.392Z,99.93
2019-01-27T16:11:43.075Z,100.67
2019-01-27T16:14:13.509Z,104.53
2019-01-27T16:16:44.903Z,101.43
2019-01-27T16:19:15.445Z,105.53
2019-01-27T16:21:45.725Z,97.73
2019-01-27T16:24:21.614Z,91.50
2019-01-27T16:26:52.302Z,86.37
2019-01-27T16:29:38.603Z,90.07
2019-01-27T16:32:17.041Z,82.93
2019-01-27T16:34:52.018Z,88.70
2019-01-27T16:37:22.776Z,90.13
2019-01-27T16:39:53.227Z,80.87
2019-01-27T16:42:23.940Z,79.50
2019-01-27T16:44:54.261Z,74.80
2019-01-27T16:47:24.793Z,85.63
2019-01-27T16:49:55.292Z,78.10
2019-01-27T16:52:25.550Z,79.10
2019-01-27T16:54:56.604Z,75.27
2019-01-27T16:57:27.228Z,74.27
2019-01-27T16:59:57.590Z,77.07
2019-01-27T17:02:28.273Z,74.03
2019-01-27T17:04:59.202Z,73.63
2019-01-27T17:07:30.674Z,77.27
2019-01-27T17:10:01.411Z,72.00
2019-01-27T17:12:32.139Z,75.70
2019-01-27T17:15:02.631Z,69.23
2019-01-27T17:17:33.391Z,71.13
2019-01-27T17:20:03.949Z,72.53
2019-01-27T17:22:34.683Z,67.83
2019-01-27T17:25:06.826Z,65.83
2019-01-27T17:27:37.339Z,78.13
2019-01-27T17:30:11.019Z,77.30
2019-01-27T17:32:41.612Z,79.60
2019-01-27T17:35:13.470Z,74.13
2019-01-27T17:37:43.770Z,80.10
2019-01-27T17:40:15.483Z,129.23
2019-01-27T17:42:45.835Z,146.63
2019-01-27T17:45:16.869Z,86.17
2019-01-27T17:47:47.487Z,92.30
2019-01-27T17:50:18.164Z,167.10
2019-01-27T17:52:49.015Z,114.20
2019-01-27T17:55:37.323Z,172.20
2019-01-27T17:58:27.947Z,98.30
2019-01-27T18:01:16.244Z,85.93
2019-01-27T18:04:05.499Z,83.63
2019-01-27T18:06:47.042Z,120.37
2019-01-27T18:09:24.529Z,117.43
2019-01-27T18:12:01.021Z,95.10
2019-01-27T18:14:34.798Z,93.73
2019-01-27T18:17:05.528Z,136.73
2019-01-27T18:19:35.904Z,107.23
2019-01-27T18:22:06.531Z,120.93
2019-01-27T18:24:36.959Z,128.70
2019-01-27T18:27:07.401Z,129.60
2019-01-27T18:29:38.133Z,126.97
2019-01-27T18:32:08.649Z,110.57
2019-01-27T18:34:38.956Z,123.27
2019-01-27T18:37:09.762Z,123.23
2019-01-27T18:39:40.347Z,117.80
2019-01-27T18:42:11.070Z,143.53
2019-01-27T18:44:41.721Z,154.57
2019-01-27T18:47:12.148Z,147.57
2019-01-27T18:49:42.427Z,140.90
2019-01-27T18:52:12.923Z,126.83
2019-01-27T18:55:02.242Z,135.30
2019-01-27T18:57:38.611Z,124.10
2019-01-27T19:00:31.652Z,116.97
2019-01-27T19:03:13.234Z,112.37
2019-01-27T19:06:09.049Z,114.10
2019-01-27T19:08:57.171Z,116.50
2019-01-27T19:11:52.018Z,104.80
2019-01-27T19:14:39.782Z,136.63
2019-01-27T19:17:27.772Z,124.23
2019-01-27T19:20:18.482Z,103.67
2019-01-27T19:23:06.676Z,94.97
2019-01-27T19:25:58.765Z,97.83
2019-01-27T19:28:37.176Z,94.60
2019-01-27T19:31:25.343Z,104.57
2019-01-27T19:34:13.596Z,104.97
2019-01-27T19:37:01.878Z,104.83
2019-01-27T19:40:02.362Z,122.73
2019-01-27T19:42:43.075Z,119.23
2019-01-27T19:45:23.847Z,117.53
2019-01-27T19:48:07.654Z,107.50
2019-01-27T19:51:00.282Z,106.10
2019-01-27T19:53:46.138Z,94.50
2019-01-27T19:56:27.451Z,99.03
2019-01-27T19:59:22.834Z,113.63
2019-01-27T20:02:11.499Z,90.07
2019-01-27T20:05:09.509Z,87.37
2019-01-27T20:08:05.295Z,89.83
2019-01-27T20:10:58.432Z,80.57
2019-01-27T20:13:59.997Z,85.90
2019-01-27T20:16:51.475Z,87.67
2019-01-27T20:19:39.482Z,87.63
2019-01-27T20:22:47.295Z,96.37
2019-01-27T20:25:43.246Z,105.83
2019-01-27T20:28:44.884Z,108.53
2019-01-27T20:31:37.922Z,101.07
2019-01-27T20:34:42.805Z,100.53
2019-01-27T20:37:19.009Z,106.90
2019-01-27T20:40:01.639Z,106.70
2019-01-27T20:42:42.835Z,101.03
2019-01-27T20:45:32.886Z,94.47
2019-01-27T20:48:17.648Z,82.90
2019-01-27T20:51:16.044Z,74.93
2019-01-27T20:54:08.226Z,68.47
2019-01-27T20:56:45.841Z,76.07
2019-01-27T20:59:34.053Z,61.27
2019-01-27T21:02:26.319Z,60.77
2019-01-27T21:05:20.799Z,65.03
2019-01-27T21:08:06.003Z,75.00
2019-01-27T21:10:46.591Z,76.43
2019-01-27T21:13:35.910Z,83.23
2019-01-27T21:16:18.459Z,216.33
2019-01-27T21:18:56.722Z,135.10
2019-01-27T21:21:27.467Z,109.90
2019-01-27T21:23:58.212Z,93.30
2019-01-27T21:26:28.590Z,123.50
2019-01-27T21:29:00.204Z,89.03
2019-01-27T21:31:30.950Z,98.90
2019-01-27T21:34:01.635Z,101.43
2019-01-27T21:36:32.021Z,100.40
2019-01-27T21:39:02.805Z,100.63
2019-01-27T21:41:33.092Z,98.50
2019-01-27T21:44:03.440Z,98.67
2019-01-27T21:46:34.259Z,95.93
2019-01-27T21:49:04.894Z,71.20
2019-01-27T21:51:35.727Z,77.33
2019-01-27T21:54:06.231Z,83.60
2019-01-27T21:56:36.801Z,89.20
2019-01-27T21:59:07.464Z,77.63
2019-01-27T22:01:37.970Z,71.87
2019-01-27T22:04:08.327Z,69.50
2019-01-27T22:06:39.250Z,68.17
2019-01-27T22:09:10.620Z,65.17
2019-01-27T22:11:40.905Z,65.43
2019-01-27T22:14:11.302Z,67.73
2019-01-27T22:16:41.718Z,72.10
2019-01-27T22:19:11.999Z,81.73
2019-01-27T22:21:42.892Z,84.40
2019-01-27T22:24:13.196Z,83.90
2019-01-27T22:26:43.843Z,82.97
2019-01-27T22:29:14.302Z,84.77
2019-01-27T22:31:44.627Z,102.90
2019-01-27T22:34:15.312Z,98.87
2019-01-27T22:36:46.011Z,90.57
2019-01-27T22:39:16.267Z,77.23
2019-01-27T22:41:46.952Z,78.13
2019-01-27T22:44:17.370Z,72.83
2019-01-27T22:46:47.713Z,84.37
2019-01-27T22:49:18.178Z,71.63
2019-01-27T22:51:48.757Z,72.93
2019-01-27T22:54:19.051Z,85.40
2019-01-27T22:56:49.573Z,79.90
2019-01-27T22:59:19.884Z,78.80
2019-01-27T23:01:50.767Z,85.97
2019-01-27T23:04:21.457Z,82.20
2019-01-27T23:06:52.055Z,76.30
2019-01-27T23:09:22.518Z,92.73
2019-01-27T23:11:53.328Z,80.97
2019-01-27T23:14:23.614Z,87.63
2019-01-27T23:16:53.950Z,86.43
2019-01-27T23:19:24.747Z,81.47
2019-01-27T23:21:55.176Z,79.80
2019-01-27T23:24:25.476Z,75.17
2019-01-27T23:26:56.152Z,74.47
2019-01-27T23:29:26.701Z,86.70
2019-01-27T23:31:57.171Z,63.63
2019-01-27T23:34:27.950Z,69.37
2019-01-27T23:36:58.631Z,65.37
2019-01-27T23:39:29.942Z,56.10
2019-01-27T23:42:00.562Z,56.60
2019-01-27T23:44:31.167Z,56.47
2019-01-27T23:47:01.518Z,69.30
2019-01-27T23:49:32.014Z,66.63
2019-01-27T23:52:03.063Z,63.97
2019-01-27T23:54:34.437Z,66.90
2019-01-27T23:57:04.905Z,63.27
2019-01-27T23:59:35.430Z,61.93
